Time;durP1;ratioP1;P1;durP2;ratioP2;P2;SDS_P1;SDS_P2;PMS_P1;PMS_P2;Temp;Humidity;BMP_temperature;BMP_pressure;BME280_temperature;BME280_humidity;BME280_pressure;Samples;Min_cycle;Max_cycle;Signal;HPM_P1;HPM_P2
2021/11/24 00:00:28;;;;;;;16.55;12.40;;;;;;;;;;5019085;28;20410;-89
2021/11/24 00:02:55;;;;;;;17.00;13.05;;;;;;;;;;5015862;28;20423;-89
2021/11/24 00:05:22;;;;;;;16.48;12.93;;;;;;;;;;5020193;28;20409;-90
2021/11/24 00:07:51;;;;;;;17.73;12.75;;;;;;;;;;5012055;28;20530;-89
2021/11/24 00:10:20;;;;;;;20.67;13.65;;;;;;;;;;5015456;28;20805;-89
2021/11/24 00:12:47;;;;;;;16.77;12.18;;;;;;;;;;5006781;28;20983;-89
2021/11/24 00:15:14;;;;;;;15.23;12.10;;;;;;;;;;5010254;28;20405;-89
2021/11/24 00:17:41;;;;;;;15.23;12.00;;;;;;;;;;5015154;28;20420;-89
2021/11/24 00:20:09;;;;;;;15.65;12.18;;;;;;;;;;5014806;28;20925;-90
2021/11/24 00:22:36;;;;;;;17.77;12.68;;;;;;;;;;5013671;28;20419;-89
2021/11/24 00:25:07;;;;;;;16.85;12.50;;;;;;;;;;5014917;28;20411;-89
2021/11/24 00:27:34;;;;;;;15.63;11.90;;;;;;;;;;5006413;28;20419;-89
2021/11/24 00:30:02;;;;;;;15.27;11.70;;;;;;;;;;5016027;28;20410;-89
2021/11/24 00:32:28;;;;;;;14.50;11.25;;;;;;;;;;5014891;28;20426;-89
2021/11/24 00:34:55;;;;;;;14.17;11.60;;;;;;;;;;5010750;28;20457;-89
2021/11/24 00:37:23;;;;;;;14.32;10.63;;;;;;;;;;5007009;28;20412;-89
2021/11/24 00:39:50;;;;;;;13.55;10.90;;;;;;;;;;5009154;28;20410;-90
2021/11/24 00:42:18;;;;;;;14.27;10.73;;;;;;;;;;5017568;28;20403;-90
2021/11/24 00:44:45;;;;;;;13.23;10.38;;;;;;;;;;5012606;28;20407;-90
2021/11/24 00:47:12;;;;;;;14.13;10.50;;;;;;;;;;5011476;28;20797;-89
2021/11/24 00:49:40;;;;;;;12.77;10.10;;;;;;;;;;5013568;28;20479;-89
2021/11/24 00:52:07;;;;;;;15.25;10.43;;;;;;;;;;5014887;28;20500;-90
2021/11/24 00:54:34;;;;;;;13.50;9.90;;;;;;;;;;5006551;28;20418;-89
2021/11/24 00:57:01;;;;;;;13.20;9.15;;;;;;;;;;5013348;28;20754;-88
2021/11/24 00:59:30;;;;;;;14.07;9.83;;;;;;;;;;5008346;28;20395;-89
2021/11/24 01:01:57;;;;;;;12.93;9.55;;;;;;;;;;5017326;28;20420;-89
2021/11/24 01:04:24;;;;;;;11.27;9.15;;;;;;;;;;5012765;28;20421;-87
2021/11/24 01:06:51;;;;;;;11.87;9.00;;;;;;;;;;5012065;28;20407;-89
2021/11/24 01:09:18;;;;;;;12.15;9.05;;;;;;;;;;5010378;28;20415;-89
2021/11/24 01:11:45;;;;;;;11.55;9.15;;;;;;;;;;5012629;28;20426;-90
2021/11/24 01:14:11;;;;;;;10.25;8.75;;;;;;;;;;5013533;28;20407;-90
2021/11/24 01:16:42;;;;;;;11.10;8.30;;;;;;;;;;5010049;28;20476;-88
2021/11/24 01:19:09;;;;;;;9.77;7.75;;;;;;;;;;5009027;28;20412;-90
2021/11/24 01:21:36;;;;;;;10.18;7.68;;;;;;;;;;5008171;28;20919;-90
2021/11/24 01:24:03;;;;;;;11.48;8.23;;;;;;;;;;5007396;28;20406;-89
2021/11/24 01:26:29;;;;;;;10.13;8.13;;;;;;;;;;5011373;28;20401;-88
2021/11/24 01:28:56;;;;;;;11.57;9.00;;;;;;;;;;5011319;28;20408;-90
2021/11/24 01:31:23;;;;;;;10.30;8.10;;;;;;;;;;5008143;28;20473;-90
2021/11/24 01:33:52;;;;;;;10.25;8.50;;;;;;;;;;5010391;28;20406;-89
2021/11/24 01:36:18;;;;;;;10.57;7.97;;;;;;;;;;5011442;28;20465;-89
2021/11/24 01:38:46;;;;;;;12.43;8.18;;;;;;;;;;5009104;28;20905;-89
2021/11/24 01:41:13;;;;;;;11.10;7.50;;;;;;;;;;5008424;28;20411;-89
2021/11/24 01:43:40;;;;;;;9.73;7.72;;;;;;;;;;5013894;28;20523;-90
2021/11/24 01:46:07;;;;;;;9.27;7.68;;;;;;;;;;5006608;28;20791;-89
2021/11/24 01:48:33;;;;;;;9.60;7.50;;;;;;;;;;5011054;28;20411;-89
2021/11/24 01:51:02;;;;;;;9.73;8.17;;;;;;;;;;5005499;28;20415;-89
2021/11/24 01:53:30;;;;;;;11.02;7.32;;;;;;;;;;5004406;28;20423;-88
2021/11/24 01:56:00;;;;;;;8.70;6.80;;;;;;;;;;5011155;28;20410;-88
2021/11/24 01:58:27;;;;;;;9.00;7.45;;;;;;;;;;5006286;28;20411;-88
2021/11/24 02:00:55;;;;;;;9.83;7.43;;;;;;;;;;5013038;28;20509;-88
2021/11/24 02:03:21;;;;;;;9.50;7.50;;;;;;;;;;5007387;28;20467;-88
2021/11/24 02:05:48;;;;;;;8.63;6.85;;;;;;;;;;5008794;28;20470;-89
2021/11/24 02:08:17;;;;;;;9.32;6.95;;;;;;;;;;5002012;28;20755;-88
2021/11/24 02:10:44;;;;;;;10.30;7.47;;;;;;;;;;5009264;28;20403;-88
2021/11/24 02:13:12;;;;;;;8.75;6.90;;;;;;;;;;5017508;28;20472;-89
2021/11/24 02:15:39;;;;;;;8.90;7.15;;;;;;;;;;5013383;28;20407;-88
2021/11/24 02:18:08;;;;;;;9.40;7.22;;;;;;;;;;5010700;28;20822;-89
2021/11/24 02:20:42;;;;;;;8.53;6.53;;;;;;;;;;5009020;28;20418;-88
2021/11/24 02:23:11;;;;;;;9.40;7.05;;;;;;;;;;5011929;28;20895;-89
2021/11/24 02:25:39;;;;;;;9.60;7.18;;;;;;;;;;5010012;28;20412;-89
2021/11/24 02:28:07;;;;;;;9.75;7.20;;;;;;;;;;5010534;28;20414;-88
2021/11/24 02:30:34;;;;;;;9.35;7.30;;;;;;;;;;5009795;28;20408;-88
2021/11/24 02:33:01;;;;;;;8.55;7.15;;;;;;;;;;5012403;28;20514;-89
2021/11/24 02:35:28;;;;;;;9.68;7.13;;;;;;;;;;5014459;28;20407;-89
2021/11/24 02:37:57;;;;;;;9.60;7.07;;;;;;;;;;5016328;28;20422;-88
2021/11/24 02:40:29;;;;;;;10.82;7.65;;;;;;;;;;5013896;28;20533;-89
2021/11/24 02:42:56;;;;;;;9.43;7.10;;;;;;;;;;5017084;28;20498;-89
2021/11/24 02:45:22;;;;;;;8.43;6.97;;;;;;;;;;5013678;28;20877;-89
2021/11/24 02:47:49;;;;;;;9.63;7.28;;;;;;;;;;5014164;28;20883;-89
2021/11/24 02:50:16;;;;;;;9.98;7.35;;;;;;;;;;5010763;28;20399;-89
2021/11/24 02:52:43;;;;;;;9.35;7.72;;;;;;;;;;5008438;28;20427;-89
2021/11/24 02:55:11;;;;;;;9.90;7.25;;;;;;;;;;5013406;28;20414;-89
2021/11/24 02:57:40;;;;;;;9.98;8.00;;;;;;;;;;5009615;28;20402;-89
2021/11/24 03:00:13;;;;;;;10.25;7.97;;;;;;;;;;5009942;28;20407;-89
2021/11/24 03:02:40;;;;;;;10.63;8.00;;;;;;;;;;5007485;28;20415;-88
2021/11/24 03:05:08;;;;;;;11.50;7.93;;;;;;;;;;5011991;28;20799;-89
2021/11/24 03:07:34;;;;;;;10.57;7.80;;;;;;;;;;5007411;28;20461;-89
2021/11/24 03:10:01;;;;;;;11.30;7.90;;;;;;;;;;5005773;28;20895;-89
2021/11/24 03:12:29;;;;;;;11.03;7.93;;;;;;;;;;5004691;28;20512;-88
2021/11/24 03:14:56;;;;;;;9.85;7.68;;;;;;;;;;5012149;28;20414;-89
2021/11/24 03:17:23;;;;;;;11.95;7.97;;;;;;;;;;5008542;28;20411;-89
2021/11/24 03:19:50;;;;;;;11.55;8.07;;;;;;;;;;5015661;28;20905;-89
2021/11/24 03:22:22;;;;;;;10.13;7.93;;;;;;;;;;5011662;28;20410;-89
2021/11/24 03:24:54;;;;;;;10.07;7.83;;;;;;;;;;5010143;28;20478;-89
2021/11/24 03:27:21;;;;;;;10.80;8.00;;;;;;;;;;5021639;28;20885;-88
2021/11/24 03:29:50;;;;;;;10.30;7.53;;;;;;;;;;5012767;28;20666;-88
2021/11/24 03:32:16;;;;;;;9.48;7.45;;;;;;;;;;5009546;28;20434;-89
2021/11/24 03:34:43;;;;;;;10.73;8.03;;;;;;;;;;5014665;28;20773;-89
2021/11/24 03:37:10;;;;;;;9.55;7.70;;;;;;;;;;5009709;28;20407;-88
2021/11/24 03:39:38;;;;;;;9.23;7.65;;;;;;;;;;5008897;28;20403;-89
2021/11/24 03:42:05;;;;;;;10.75;7.47;;;;;;;;;;5010749;28;20406;-89
2021/11/24 03:44:32;;;;;;;9.77;7.97;;;;;;;;;;5010949;28;20402;-88
2021/11/24 03:47:00;;;;;;;9.07;7.03;;;;;;;;;;5005872;28;20879;-89
2021/11/24 03:49:27;;;;;;;9.80;7.53;;;;;;;;;;5012661;28;20887;-88
2021/11/24 03:51:53;;;;;;;10.52;7.60;;;;;;;;;;5012566;28;20407;-89
2021/11/24 03:54:20;;;;;;;11.67;8.07;;;;;;;;;;5011575;28;20398;-88
2021/11/24 03:56:47;;;;;;;9.57;7.82;;;;;;;;;;5008745;28;20419;-89
2021/11/24 03:59:14;;;;;;;10.82;8.10;;;;;;;;;;5012180;28;20406;-90
2021/11/24 04:01:41;;;;;;;12.13;8.53;;;;;;;;;;5009349;28;20433;-89
2021/11/24 04:04:09;;;;;;;14.80;9.05;;;;;;;;;;5015569;28;20428;-88
2021/11/24 04:06:36;;;;;;;12.05;9.00;;;;;;;;;;5010943;28;20433;-88
2021/11/24 04:09:03;;;;;;;11.30;9.15;;;;;;;;;;5008361;28;20868;-88
2021/11/24 04:11:30;;;;;;;13.20;9.40;;;;;;;;;;5010579;28;20410;-89
2021/11/24 04:13:57;;;;;;;13.65;9.35;;;;;;;;;;5012456;28;20763;-88
2021/11/24 04:16:24;;;;;;;12.67;9.40;;;;;;;;;;5006736;28;20418;-89
2021/11/24 04:18:52;;;;;;;12.68;9.93;;;;;;;;;;5009452;28;20465;-88
2021/11/24 04:21:20;;;;;;;15.35;10.32;;;;;;;;;;5010984;28;20428;-89
2021/11/24 04:23:47;;;;;;;13.57;9.70;;;;;;;;;;5007500;28;20468;-88
2021/11/24 04:26:14;;;;;;;12.07;9.80;;;;;;;;;;5012953;28;20399;-89
2021/11/24 04:28:41;;;;;;;12.43;9.90;;;;;;;;;;5010679;28;20478;-87
2021/11/24 04:31:09;;;;;;;15.10;9.98;;;;;;;;;;5008040;28;20414;-89
2021/11/24 04:33:36;;;;;;;13.57;10.00;;;;;;;;;;5013701;28;20425;-88
2021/11/24 04:36:03;;;;;;;13.73;10.25;;;;;;;;;;5015095;28;20494;-89
2021/11/24 04:38:32;;;;;;;13.50;10.00;;;;;;;;;;5004992;28;20462;-88
2021/11/24 04:40:59;;;;;;;13.30;10.07;;;;;;;;;;5008205;28;20407;-88
2021/11/24 04:43:29;;;;;;;14.77;10.18;;;;;;;;;;5004863;28;20402;-88
2021/11/24 04:45:56;;;;;;;14.82;10.48;;;;;;;;;;5006596;28;20405;-89
2021/11/24 04:48:23;;;;;;;15.63;10.57;;;;;;;;;;5008429;28;20414;-88
2021/11/24 04:50:50;;;;;;;15.38;10.43;;;;;;;;;;5013416;28;21246;-89
2021/11/24 04:53:17;;;;;;;13.93;9.98;;;;;;;;;;5008639;28;20429;-89
2021/11/24 04:55:45;;;;;;;14.75;10.65;;;;;;;;;;5006566;28;20941;-88
2021/11/24 04:58:12;;;;;;;13.57;9.68;;;;;;;;;;5009266;28;20414;-88
2021/11/24 05:00:40;;;;;;;15.70;10.18;;;;;;;;;;5006946;28;20409;-89
2021/11/24 05:03:07;;;;;;;11.52;9.60;;;;;;;;;;5007345;28;20446;-89
2021/11/24 05:05:34;;;;;;;13.87;10.20;;;;;;;;;;5016705;28;20541;-89
2021/11/24 05:08:02;;;;;;;15.32;10.25;;;;;;;;;;5009136;28;20410;-88
2021/11/24 05:10:29;;;;;;;13.40;9.57;;;;;;;;;;5005131;28;20760;-88
2021/11/24 05:12:57;;;;;;;13.38;9.63;;;;;;;;;;5006569;28;20423;-89
2021/11/24 05:15:26;;;;;;;13.70;9.98;;;;;;;;;;5015490;28;20447;-87
2021/11/24 05:17:56;;;;;;;12.68;9.68;;;;;;;;;;5008119;28;20794;-88
2021/11/24 05:20:25;;;;;;;14.70;10.40;;;;;;;;;;5009438;28;20466;-88
2021/11/24 05:22:53;;;;;;;15.15;10.60;;;;;;;;;;5011655;28;20413;-89
2021/11/24 05:25:21;;;;;;;12.73;9.25;;;;;;;;;;5005704;28;20412;-88
2021/11/24 05:27:47;;;;;;;14.20;9.32;;;;;;;;;;5007439;28;20414;-90
2021/11/24 05:30:16;;;;;;;12.90;9.20;;;;;;;;;;5007604;28;20411;-88
2021/11/24 05:32:42;;;;;;;13.82;8.95;;;;;;;;;;5006776;28;20411;-88
2021/11/24 05:35:11;;;;;;;14.18;9.73;;;;;;;;;;5008545;28;20415;-89
2021/11/24 05:37:38;;;;;;;13.88;9.70;;;;;;;;;;5010863;28;20411;-89
2021/11/24 05:40:06;;;;;;;13.43;9.50;;;;;;;;;;5006971;28;20407;-89
2021/11/24 05:42:33;;;;;;;12.45;8.80;;;;;;;;;;5008724;28;20407;-89
2021/11/24 05:45:11;;;;;;;11.97;8.63;;;;;;;;;;5014557;28;20401;-89
2021/11/24 05:47:54;;;;;;;13.52;9.55;;;;;;;;;;5012499;28;20413;-89
2021/11/24 05:50:22;;;;;;;12.63;9.38;;;;;;;;;;5017163;28;20438;-89
2021/11/24 05:52:49;;;;;;;14.18;9.30;;;;;;;;;;5013205;28;20467;-93
2021/11/24 05:55:16;;;;;;;14.10;9.93;;;;;;;;;;5016303;28;20895;-87
2021/11/24 05:57:44;;;;;;;14.07;10.32;;;;;;;;;;5016491;28;20402;-88
2021/11/24 06:00:12;;;;;;;14.85;10.57;;;;;;;;;;5015689;28;20406;-88
2021/11/24 06:02:40;;;;;;;15.63;10.90;;;;;;;;;;5013786;28;20467;-88
2021/11/24 06:05:08;;;;;;;15.68;10.95;;;;;;;;;;5015840;28;20413;-87
2021/11/24 06:07:35;;;;;;;13.52;10.32;;;;;;;;;;5015232;28;20407;-88
2021/11/24 06:10:02;;;;;;;19.90;11.70;;;;;;;;;;5014464;28;20403;-88
2021/11/24 06:12:29;;;;;;;16.05;11.35;;;;;;;;;;5017910;28;20423;-88
2021/11/24 06:14:55;;;;;;;17.67;12.02;;;;;;;;;;5010636;28;20457;-88
2021/11/24 06:17:22;;;;;;;18.67;12.85;;;;;;;;;;5014954;28;20401;-87
2021/11/24 06:19:50;;;;;;;18.17;12.70;;;;;;;;;;5015162;28;20412;-88
2021/11/24 06:22:17;;;;;;;19.63;13.68;;;;;;;;;;5013276;28;20398;-88
2021/11/24 06:24:44;;;;;;;21.33;13.80;;;;;;;;;;5014490;28;20468;-87
2021/11/24 06:27:12;;;;;;;22.10;14.63;;;;;;;;;;5019313;28;20409;-88
2021/11/24 06:29:39;;;;;;;19.90;14.15;;;;;;;;;;5015355;28;20407;-87
2021/11/24 06:32:07;;;;;;;19.27;13.77;;;;;;;;;;5011308;28;20514;-87
2021/11/24 06:34:34;;;;;;;21.10;14.93;;;;;;;;;;5011064;28;20425;-89
2021/11/24 06:37:03;;;;;;;22.15;15.07;;;;;;;;;;5016148;28;20407;-87
2021/11/24 06:39:30;;;;;;;23.95;16.00;;;;;;;;;;5019510;28;20444;-86
2021/11/24 06:41:58;;;;;;;22.55;16.60;;;;;;;;;;5013281;28;20947;-88
2021/11/24 06:44:34;;;;;;;22.85;15.98;;;;;;;;;;5020413;28;20412;-86
2021/11/24 06:47:01;;;;;;;24.15;16.35;;;;;;;;;;5008504;28;20403;-86
2021/11/24 06:49:28;;;;;;;25.98;16.48;;;;;;;;;;5011909;28;20407;-86
2021/11/24 06:51:55;;;;;;;23.65;15.98;;;;;;;;;;5009754;28;20462;-93
2021/11/24 06:54:23;;;;;;;26.08;16.90;;;;;;;;;;5009379;28;20425;-89
2021/11/24 06:56:51;;;;;;;24.15;16.75;;;;;;;;;;5011659;28;20398;-89
2021/11/24 06:59:18;;;;;;;23.38;15.63;;;;;;;;;;5012677;28;20438;-89
2021/11/24 07:01:45;;;;;;;20.92;15.25;;;;;;;;;;5011193;28;20686;-89
2021/11/24 07:04:12;;;;;;;23.38;15.20;;;;;;;;;;5009566;28;20417;-88
2021/11/24 07:06:40;;;;;;;23.23;15.88;;;;;;;;;;5009761;28;20411;-89
2021/11/24 07:09:09;;;;;;;21.88;15.40;;;;;;;;;;5012472;28;20502;-89
2021/11/24 07:11:38;;;;;;;22.10;14.95;;;;;;;;;;5009957;28;20407;-89
2021/11/24 07:14:05;;;;;;;22.58;15.50;;;;;;;;;;5012367;28;20427;-89
2021/11/24 07:16:32;;;;;;;22.60;15.50;;;;;;;;;;5011911;28;20405;-88
2021/11/24 07:18:59;;;;;;;22.92;15.45;;;;;;;;;;5011469;28;20420;-88
2021/11/24 07:21:26;;;;;;;21.30;14.13;;;;;;;;;;5011937;28;20666;-89
2021/11/24 07:23:52;;;;;;;18.13;13.48;;;;;;;;;;5009735;28;20773;-89
2021/11/24 07:26:19;;;;;;;20.85;14.05;;;;;;;;;;5013660;28;20408;-89
2021/11/24 07:28:48;;;;;;;17.65;14.13;;;;;;;;;;5012778;28;20644;-89
2021/11/24 07:31:15;;;;;;;20.27;13.63;;;;;;;;;;5007813;28;20414;-89
2021/11/24 07:33:42;;;;;;;20.65;13.70;;;;;;;;;;5013224;28;20770;-89
2021/11/24 07:36:09;;;;;;;19.00;13.15;;;;;;;;;;5008752;28;20411;-89
2021/11/24 07:38:36;;;;;;;17.13;12.48;;;;;;;;;;5012510;28;20403;-89
2021/11/24 07:41:03;;;;;;;16.38;12.85;;;;;;;;;;5007266;28;20462;-89
2021/11/24 07:43:31;;;;;;;18.10;12.85;;;;;;;;;;5012656;28;20406;-88
2021/11/24 07:45:59;;;;;;;16.05;12.15;;;;;;;;;;5011255;28;20409;-87
2021/11/24 07:48:26;;;;;;;18.63;12.73;;;;;;;;;;5008557;28;20783;-87
2021/11/24 07:50:53;;;;;;;17.23;12.77;;;;;;;;;;5012942;28;20931;-88
2021/11/24 07:53:20;;;;;;;18.73;11.95;;;;;;;;;;5008571;28;20406;-87
2021/11/24 07:55:47;;;;;;;18.50;12.25;;;;;;;;;;5010883;28;20411;-88
2021/11/24 07:58:14;;;;;;;16.60;11.75;;;;;;;;;;5007846;28;20681;-88
2021/11/24 08:00:41;;;;;;;17.70;11.63;;;;;;;;;;5011994;28;20449;-88
2021/11/24 08:03:09;;;;;;;15.93;11.57;;;;;;;;;;5006793;28;20485;-88
2021/11/24 08:05:36;;;;;;;16.45;11.25;;;;;;;;;;5007575;28;20407;-89
2021/11/24 08:08:03;;;;;;;17.15;12.48;;;;;;;;;;5012104;28;20408;-88
2021/11/24 08:10:30;;;;;;;17.55;11.40;;;;;;;;;;5008846;28;20517;-88
2021/11/24 08:12:56;;;;;;;16.80;11.40;;;;;;;;;;5009706;28;20399;-88
2021/11/24 08:15:24;;;;;;;14.95;11.10;;;;;;;;;;5009462;28;20427;-88
2021/11/24 08:17:51;;;;;;;14.57;11.10;;;;;;;;;;5008069;28;20405;-88
2021/11/24 08:20:19;;;;;;;13.48;9.15;;;;;;;;;;5009810;28;20800;-88
2021/11/24 08:22:46;;;;;;;11.57;8.50;;;;;;;;;;5007918;28;20407;-88
2021/11/24 08:25:13;;;;;;;10.35;7.10;;;;;;;;;;5010917;28;20409;-88
2021/11/24 08:27:40;;;;;;;9.32;6.30;;;;;;;;;;5006167;28;20407;-89
2021/11/24 08:30:09;;;;;;;10.38;6.72;;;;;;;;;;5011124;28;20895;-88
2021/11/24 08:32:36;;;;;;;7.70;6.33;;;;;;;;;;5009683;28;20859;-88
2021/11/24 08:35:04;;;;;;;7.80;6.43;;;;;;;;;;5008925;28;20777;-88
2021/11/24 08:37:32;;;;;;;9.23;6.40;;;;;;;;;;5009309;28;20940;-88
2021/11/24 08:39:59;;;;;;;8.25;6.40;;;;;;;;;;5006982;28;20461;-88
2021/11/24 08:42:26;;;;;;;8.35;5.88;;;;;;;;;;5012051;28;20407;-89
2021/11/24 08:44:53;;;;;;;8.45;6.25;;;;;;;;;;5007954;28;20417;-88
2021/11/24 08:47:20;;;;;;;9.27;6.45;;;;;;;;;;5010013;28;20408;-89
2021/11/24 08:49:47;;;;;;;11.32;6.90;;;;;;;;;;5009497;28;20479;-89
2021/11/24 08:52:14;;;;;;;11.97;7.30;;;;;;;;;;5008421;28;20407;-89
2021/11/24 08:54:42;;;;;;;13.23;7.35;;;;;;;;;;5008972;28;20718;-89
2021/11/24 08:57:09;;;;;;;12.15;8.13;;;;;;;;;;5007847;28;20407;-89
2021/11/24 08:59:36;;;;;;;14.23;8.88;;;;;;;;;;5006521;28;20410;-89
2021/11/24 09:02:03;;;;;;;13.57;8.50;;;;;;;;;;5008354;28;20404;-89
2021/11/24 09:04:30;;;;;;;12.82;8.63;;;;;;;;;;5008798;28;20439;-89
2021/11/24 09:06:58;;;;;;;11.80;8.48;;;;;;;;;;5008941;28;20410;-89
2021/11/24 09:09:24;;;;;;;13.00;7.90;;;;;;;;;;5005584;28;20500;-89
2021/11/24 09:11:53;;;;;;;12.10;7.72;;;;;;;;;;5012829;28;20760;-89
2021/11/24 09:14:20;;;;;;;13.45;8.20;;;;;;;;;;5006681;28;20428;-89
2021/11/24 09:16:47;;;;;;;17.00;7.97;;;;;;;;;;5010211;28;20443;-89
2021/11/24 09:19:14;;;;;;;11.00;7.57;;;;;;;;;;5008022;28;20406;-88
2021/11/24 09:21:40;;;;;;;13.23;7.28;;;;;;;;;;5006355;28;20410;-89
2021/11/24 09:24:13;;;;;;;12.88;7.85;;;;;;;;;;5006178;28;20406;-89
2021/11/24 09:26:42;;;;;;;11.70;7.38;;;;;;;;;;5010451;28;20405;-88
2021/11/24 09:29:12;;;;;;;12.10;7.40;;;;;;;;;;5008420;28;20490;-89
2021/11/24 09:31:39;;;;;;;14.63;8.32;;;;;;;;;;5008260;28;20407;-88
2021/11/24 09:34:06;;;;;;;14.43;8.03;;;;;;;;;;5010926;28;20447;-89
2021/11/24 09:36:34;;;;;;;14.50;8.00;;;;;;;;;;5008045;28;20406;-89
2021/11/24 09:39:01;;;;;;;12.95;8.55;;;;;;;;;;5008057;28;20481;-89
2021/11/24 09:41:30;;;;;;;13.30;8.57;;;;;;;;;;5009610;28;20506;-89
2021/11/24 09:43:57;;;;;;;13.07;8.45;;;;;;;;;;5009260;28;20409;-89
2021/11/24 09:46:26;;;;;;;12.40;8.77;;;;;;;;;;5009346;28;20399;-89
2021/11/24 09:48:53;;;;;;;12.63;8.43;;;;;;;;;;5016003;28;20423;-89
2021/11/24 09:51:20;;;;;;;14.52;8.82;;;;;;;;;;5012825;28;20413;-90
2021/11/24 09:53:49;;;;;;;14.90;8.80;;;;;;;;;;5010686;28;20413;-90
2021/11/24 09:56:17;;;;;;;12.27;7.82;;;;;;;;;;5009085;28;20451;-89
2021/11/24 09:58:44;;;;;;;14.48;8.43;;;;;;;;;;5012852;28;20397;-90
2021/11/24 10:01:11;;;;;;;13.85;8.07;;;;;;;;;;5021282;28;20394;-91
2021/11/24 10:03:39;;;;;;;13.02;8.23;;;;;;;;;;5023557;28;20403;-90
2021/11/24 10:06:06;;;;;;;11.55;7.85;;;;;;;;;;5026703;28;20445;-88
2021/11/24 10:08:35;;;;;;;9.45;6.57;;;;;;;;;;5025037;28;20465;-89
2021/11/24 10:11:02;;;;;;;9.45;6.50;;;;;;;;;;5027054;28;20401;-89
2021/11/24 10:13:29;;;;;;;9.82;6.35;;;;;;;;;;5017575;28;20406;-90
2021/11/24 10:15:57;;;;;;;13.98;7.03;;;;;;;;;;5013259;28;20420;-89
2021/11/24 10:18:27;;;;;;;9.32;6.68;;;;;;;;;;5009409;28;20884;-89
2021/11/24 10:20:58;;;;;;;10.20;6.68;;;;;;;;;;5009840;28;20401;-90
2021/11/24 10:23:32;;;;;;;9.35;6.47;;;;;;;;;;5006775;28;20405;-89
2021/11/24 10:26:21;;;;;;;10.50;6.40;;;;;;;;;;5008433;28;20472;-89
2021/11/24 10:28:55;;;;;;;9.68;6.30;;;;;;;;;;5012073;28;20464;-89
2021/11/24 10:31:32;;;;;;;12.27;6.53;;;;;;;;;;5010398;28;20478;-89
2021/11/24 10:34:00;;;;;;;13.60;6.90;;;;;;;;;;5014911;28;21520;-88
2021/11/24 10:36:29;;;;;;;11.25;6.38;;;;;;;;;;5016186;28;20473;-89
2021/11/24 10:38:56;;;;;;;10.40;6.50;;;;;;;;;;5011191;28;20449;-89
2021/11/24 10:41:39;;;;;;;12.17;6.00;;;;;;;;;;5011414;28;20775;-89
2021/11/24 10:44:06;;;;;;;13.82;6.55;;;;;;;;;;5011927;28;20461;-89
2021/11/24 10:46:34;;;;;;;12.77;7.18;;;;;;;;;;5011091;28;20408;-89
2021/11/24 10:49:08;;;;;;;11.23;6.70;;;;;;;;;;5011357;28;21001;-89
2021/11/24 10:51:38;;;;;;;10.32;6.85;;;;;;;;;;5009741;28;20406;-89
2021/11/24 10:54:16;;;;;;;12.07;6.75;;;;;;;;;;5015217;28;20409;-90
2021/11/24 10:57:06;;;;;;;13.27;7.15;;;;;;;;;;5014988;28;20467;-89
2021/11/24 10:59:35;;;;;;;12.18;6.75;;;;;;;;;;5013541;28;20497;-89
2021/11/24 11:02:25;;;;;;;12.75;7.10;;;;;;;;;;5010321;28;20489;-89
2021/11/24 11:05:11;;;;;;;9.80;7.10;;;;;;;;;;5010229;28;20497;-89
2021/11/24 11:07:41;;;;;;;12.43;7.20;;;;;;;;;;5012362;28;20481;-89
2021/11/24 11:10:11;;;;;;;12.27;7.05;;;;;;;;;;5007977;28;20835;-89
2021/11/24 11:12:41;;;;;;;12.48;7.28;;;;;;;;;;5012156;28;20986;-89
2021/11/24 11:15:26;;;;;;;12.15;7.20;;;;;;;;;;5011837;28;20471;-88
2021/11/24 11:18:15;;;;;;;11.93;6.90;;;;;;;;;;5014545;28;20438;-90
2021/11/24 11:20:47;;;;;;;10.20;7.13;;;;;;;;;;5007099;28;20484;-89
2021/11/24 11:23:20;;;;;;;9.93;6.85;;;;;;;;;;5010355;28;20476;-89
2021/11/24 11:25:49;;;;;;;10.43;7.40;;;;;;;;;;5009807;28;20410;-90
2021/11/24 11:28:17;;;;;;;11.90;6.93;;;;;;;;;;5011244;28;20862;-89
2021/11/24 11:30:47;;;;;;;9.57;7.07;;;;;;;;;;5014264;28;20439;-89
2021/11/24 11:33:16;;;;;;;13.40;7.13;;;;;;;;;;5010829;28;20445;-89
2021/11/24 11:35:45;;;;;;;11.90;7.07;;;;;;;;;;5013813;28;20441;-89
2021/11/24 11:38:12;;;;;;;8.80;6.70;;;;;;;;;;5010848;28;20404;-89
2021/11/24 11:40:43;;;;;;;11.40;7.13;;;;;;;;;;5009573;28;20884;-89
2021/11/24 11:43:10;;;;;;;9.05;6.68;;;;;;;;;;5010923;28;20407;-89
2021/11/24 11:45:40;;;;;;;9.15;6.55;;;;;;;;;;5010293;28;20931;-89
2021/11/24 11:48:08;;;;;;;8.55;6.70;;;;;;;;;;5009601;28;20566;-89
2021/11/24 11:50:54;;;;;;;11.02;6.88;;;;;;;;;;5009118;28;20415;-89
2021/11/24 11:53:23;;;;;;;10.43;6.68;;;;;;;;;;5010529;28;20457;-89
2021/11/24 11:56:14;;;;;;;10.60;6.50;;;;;;;;;;5010234;28;20434;-89
2021/11/24 11:58:55;;;;;;;10.63;7.20;;;;;;;;;;5010295;28;20859;-89
2021/11/24 12:01:24;;;;;;;9.18;6.57;;;;;;;;;;5009857;28;20409;-89
2021/11/24 12:04:00;;;;;;;10.07;6.70;;;;;;;;;;5012116;28;20405;-89
2021/11/24 12:06:29;;;;;;;7.90;6.47;;;;;;;;;;5006580;28;20418;-89
2021/11/24 12:09:24;;;;;;;9.60;6.55;;;;;;;;;;5011058;28;20909;-89
2021/11/24 12:12:13;;;;;;;7.03;5.80;;;;;;;;;;5009042;28;20804;-88
2021/11/24 12:15:10;;;;;;;9.45;6.30;;;;;;;;;;5010302;28;20420;-90
2021/11/24 12:17:51;;;;;;;9.65;5.93;;;;;;;;;;5008984;28;20420;-90
2021/11/24 12:20:58;;;;;;;8.27;6.40;;;;;;;;;;5009338;28;21991;-90
2021/11/24 12:23:26;;;;;;;7.45;5.72;;;;;;;;;;5011598;28;20555;-90
2021/11/24 12:25:59;;;;;;;9.88;6.53;;;;;;;;;;4995959;28;20808;-90
2021/11/24 12:28:38;;;;;;;8.97;6.63;;;;;;;;;;5011241;28;20460;-90
2021/11/24 12:31:12;;;;;;;7.80;6.10;;;;;;;;;;5018729;28;20429;-90
2021/11/24 12:33:51;;;;;;;8.50;6.60;;;;;;;;;;5012290;28;20411;-90
2021/11/24 12:36:22;;;;;;;9.20;6.22;;;;;;;;;;5014788;28;20428;-90
2021/11/24 12:38:53;;;;;;;8.50;6.50;;;;;;;;;;5012295;28;20417;-91
2021/11/24 12:41:22;;;;;;;8.23;6.53;;;;;;;;;;5015405;28;20435;-90
2021/11/24 12:43:52;;;;;;;8.80;6.78;;;;;;;;;;5016730;28;20794;-91
2021/11/24 12:46:21;;;;;;;7.97;6.63;;;;;;;;;;5008513;28;20778;-90
2021/11/24 12:48:50;;;;;;;9.38;6.90;;;;;;;;;;5007680;28;20410;-90
2021/11/24 12:51:21;;;;;;;8.48;6.18;;;;;;;;;;5013293;28;20409;-90
2021/11/24 12:53:57;;;;;;;8.43;6.63;;;;;;;;;;5016115;28;20801;-90
2021/11/24 12:56:26;;;;;;;8.73;6.72;;;;;;;;;;5013880;28;20500;-90
2021/11/24 12:58:58;;;;;;;7.38;6.18;;;;;;;;;;5013209;28;20410;-90
2021/11/24 13:01:28;;;;;;;7.85;6.30;;;;;;;;;;5009448;28;20426;-90
2021/11/24 13:04:02;;;;;;;7.35;6.25;;;;;;;;;;5011067;28;20653;-89
2021/11/24 13:06:29;;;;;;;7.55;6.15;;;;;;;;;;5004792;28;20817;-89
2021/11/24 13:09:14;;;;;;;8.00;6.55;;;;;;;;;;5009346;28;20432;-88
2021/11/24 13:11:49;;;;;;;9.93;7.10;;;;;;;;;;5005086;28;20418;-87
2021/11/24 13:14:19;;;;;;;9.98;7.57;;;;;;;;;;5004871;28;20730;-88
2021/11/24 13:16:47;;;;;;;8.65;6.85;;;;;;;;;;5007525;28;20438;-87
2021/11/24 13:19:15;;;;;;;11.60;7.43;;;;;;;;;;5008655;28;20399;-87
2021/11/24 13:21:53;;;;;;;8.30;6.60;;;;;;;;;;5009589;28;20401;-88
2021/11/24 13:24:20;;;;;;;8.38;6.63;;;;;;;;;;5007352;28;20893;-88
2021/11/24 13:26:55;;;;;;;8.88;6.78;;;;;;;;;;5010732;28;20881;-87
2021/11/24 13:29:25;;;;;;;9.82;6.63;;;;;;;;;;5009455;28;20401;-87
2021/11/24 13:31:53;;;;;;;9.15;7.00;;;;;;;;;;5009107;28;20498;-88
2021/11/24 13:34:27;;;;;;;7.75;6.88;;;;;;;;;;5014161;28;20621;-88
2021/11/24 13:36:55;;;;;;;9.93;6.88;;;;;;;;;;5012822;28;20431;-88
2021/11/24 13:39:26;;;;;;;8.37;6.90;;;;;;;;;;5010081;28;20405;-88
2021/11/24 13:41:53;;;;;;;7.97;6.93;;;;;;;;;;5007149;28;20739;-88
2021/11/24 13:44:20;;;;;;;7.53;6.47;;;;;;;;;;5010990;28;20748;-88
2021/11/24 13:46:51;;;;;;;8.48;7.07;;;;;;;;;;5009027;28;20472;-88
2021/11/24 13:49:23;;;;;;;9.23;6.73;;;;;;;;;;5006661;28;20883;-88
2021/11/24 13:52:01;;;;;;;8.88;7.47;;;;;;;;;;5014554;28;20878;-88
2021/11/24 13:54:29;;;;;;;7.43;6.47;;;;;;;;;;5015522;28;20464;-88
2021/11/24 13:57:00;;;;;;;8.68;6.40;;;;;;;;;;5018541;28;20453;-87
2021/11/24 13:59:30;;;;;;;7.35;6.57;;;;;;;;;;5012527;28;20407;-87
2021/11/24 14:02:05;;;;;;;8.25;6.55;;;;;;;;;;5018361;28;20419;-87
2021/11/24 14:04:35;;;;;;;8.88;6.53;;;;;;;;;;5014261;28;20418;-87
2021/11/24 14:07:06;;;;;;;8.30;6.50;;;;;;;;;;5016552;28;20494;-88
2021/11/24 14:09:36;;;;;;;9.68;6.75;;;;;;;;;;5019363;28;20482;-88
2021/11/24 14:12:10;;;;;;;9.45;7.07;;;;;;;;;;5016600;28;20482;-87
2021/11/24 14:14:46;;;;;;;10.55;7.07;;;;;;;;;;5017671;28;20747;-87
2021/11/24 14:17:25;;;;;;;7.60;6.60;;;;;;;;;;5017843;28;20520;-88
2021/11/24 14:19:52;;;;;;;7.78;6.40;;;;;;;;;;5012569;28;20943;-88
2021/11/24 14:22:19;;;;;;;8.52;6.85;;;;;;;;;;5014144;28;21303;-87
2021/11/24 14:24:46;;;;;;;8.50;6.83;;;;;;;;;;5012994;28;20451;-88
2021/11/24 14:27:13;;;;;;;9.60;6.90;;;;;;;;;;5012227;28;20472;-87
2021/11/24 14:29:39;;;;;;;7.70;6.67;;;;;;;;;;5013681;28;20405;-87
2021/11/24 14:32:07;;;;;;;8.70;6.87;;;;;;;;;;5010426;28;20405;-87
2021/11/24 14:34:35;;;;;;;8.90;7.15;;;;;;;;;;5013200;28;20424;-87
2021/11/24 14:37:02;;;;;;;8.60;7.20;;;;;;;;;;5013476;28;20425;-87
2021/11/24 14:39:29;;;;;;;10.10;6.93;;;;;;;;;;5012615;28;20420;-87
2021/11/24 14:41:56;;;;;;;12.10;8.27;;;;;;;;;;5016211;28;20889;-87